Time;durP1;ratioP1;P1;durP2;ratioP2;P2;SDS_P1;SDS_P2;PMS_P1;PMS_P2;Temp;Humidity;BMP_temperature;BMP_pressure;BME280_temperature;BME280_humidity;BME280_pressure;Samples;Min_cycle;Max_cycle;Signal;HPM_P1;HPM_P2
2023/04/15 00:01:18;;;;;;;0.45;0.45;;;3.80;99.90;;;;;;5072511;28;20205;-90
2023/04/15 00:03:47;;;;;;;0.75;0.75;;;3.80;99.90;;;;;;5072508;28;20274;-90
2023/04/15 00:06:16;;;;;;;0.32;0.32;;;3.80;99.90;;;;;;5072788;28;20213;-91
2023/04/15 00:08:44;;;;;;;0.55;0.55;;;3.80;99.90;;;;;;5076125;28;20215;-89
2023/04/15 00:11:15;;;;;;;0.68;0.68;;;3.80;99.90;;;;;;5081340;28;20200;-90
2023/04/15 00:13:44;;;;;;;0.70;0.70;;;3.80;99.90;;;;;;5076355;28;20217;-90
2023/04/15 00:16:12;;;;;;;0.30;0.30;;;3.80;99.90;;;;;;5076320;28;20205;-89
2023/04/15 00:18:41;;;;;;;0.65;0.65;;;3.80;99.90;;;;;;5075649;28;20201;-89
2023/04/15 00:21:09;;;;;;;0.70;0.70;;;3.80;99.90;;;;;;5076502;28;20205;-90
2023/04/15 00:23:38;;;;;;;0.40;0.40;;;3.80;99.90;;;;;;5075749;28;20203;-90
2023/04/15 00:26:06;;;;;;;0.73;0.70;;;3.80;99.90;;;;;;5075953;28;20292;-90
2023/04/15 00:28:37;;;;;;;1.13;0.80;;;3.80;99.90;;;;;;5075665;28;20370;-90
2023/04/15 00:31:05;;;;;;;0.70;0.70;;;3.80;99.90;;;;;;5075999;28;20212;-90
2023/04/15 00:33:35;;;;;;;0.75;0.75;;;3.80;99.90;;;;;;5078501;28;20283;-90
2023/04/15 00:36:04;;;;;;;0.40;0.40;;;3.80;99.90;;;;;;5078263;28;20205;-91
2023/04/15 00:38:33;;;;;;;0.60;0.60;;;3.80;99.90;;;;;;5075313;28;20211;-91
2023/04/15 00:41:02;;;;;;;0.30;0.30;;;3.80;99.90;;;;;;5075914;28;20212;-91
2023/04/15 00:43:30;;;;;;;0.52;0.52;;;3.80;99.90;;;;;;5075696;28;20193;-90
2023/04/15 00:46:02;;;;;;;0.40;0.40;;;3.70;99.90;;;;;;5075518;28;20237;-91
2023/04/15 00:48:31;;;;;;;0.40;0.40;;;3.70;99.90;;;;;;5074956;28;20212;-90
2023/04/15 00:51:00;;;;;;;0.60;0.60;;;3.70;99.90;;;;;;5075778;28;20209;-90
2023/04/15 00:53:28;;;;;;;0.28;0.28;;;3.80;99.90;;;;;;5075560;28;20303;-92
2023/04/15 00:55:57;;;;;;;0.60;0.60;;;3.80;99.90;;;;;;5075283;28;20215;-91
2023/04/15 00:58:27;;;;;;;0.52;0.52;;;3.80;99.90;;;;;;5075287;28;20211;-90
2023/04/15 01:00:56;;;;;;;0.60;0.60;;;3.80;99.90;;;;;;5075505;28;20201;-91
2023/04/15 01:03:26;;;;;;;0.75;0.75;;;3.80;99.90;;;;;;5075536;28;20204;-90
2023/04/15 01:05:57;;;;;;;0.65;0.30;;;3.80;99.90;;;;;;5075161;28;20209;-91
2023/04/15 01:08:27;;;;;;;0.52;0.52;;;3.80;99.90;;;;;;5075108;28;20205;-91
2023/04/15 01:10:57;;;;;;;0.57;0.57;;;3.80;99.90;;;;;;5075421;28;20247;-90
2023/04/15 01:13:25;;;;;;;0.20;0.20;;;3.70;99.90;;;;;;5075362;28;20221;-91
2023/04/15 01:15:55;;;;;;;0.50;0.50;;;3.70;99.90;;;;;;5075087;28;20211;-91
2023/04/15 01:18:24;;;;;;;0.77;0.77;;;3.80;99.90;;;;;;5074642;28;20297;-91
2023/04/15 01:20:54;;;;;;;0.38;0.38;;;3.80;99.90;;;;;;5074881;28;20211;-91
2023/04/15 01:23:23;;;;;;;0.63;0.63;;;3.80;99.90;;;;;;5075276;28;20221;-92
2023/04/15 01:25:57;;;;;;;0.80;0.80;;;3.80;99.90;;;;;;5075316;28;20211;-92
2023/04/15 01:28:26;;;;;;;0.73;0.73;;;3.80;99.90;;;;;;5074597;28;20200;-91
2023/04/15 01:31:07;;;;;;;0.90;0.90;;;3.80;99.90;;;;;;5075450;28;20209;-91
2023/04/15 01:33:36;;;;;;;0.60;0.60;;;3.80;99.90;;;;;;5074714;28;20220;-91
2023/04/15 01:36:07;;;;;;;1.20;1.00;;;3.80;99.90;;;;;;5075366;28;20208;-91
2023/04/15 01:38:36;;;;;;;1.05;0.80;;;3.80;99.90;;;;;;5074519;28;20300;-90
2023/04/15 01:41:07;;;;;;;0.90;0.90;;;3.90;99.90;;;;;;5074569;28;20220;-91
2023/04/15 01:43:36;;;;;;;0.60;0.60;;;3.90;99.90;;;;;;5074760;28;20197;-91
2023/04/15 01:46:05;;;;;;;1.02;1.02;;;3.90;99.90;;;;;;5073806;28;20205;-92
2023/04/15 01:48:33;;;;;;;0.60;0.60;;;3.90;99.90;;;;;;5074293;28;20205;-91
2023/04/15 01:51:02;;;;;;;0.65;0.65;;;3.90;99.90;;;;;;5074625;28;20205;-91
2023/04/15 01:53:30;;;;;;;0.80;0.80;;;4.00;99.90;;;;;;5074407;28;20217;-92
2023/04/15 01:55:58;;;;;;;1.02;1.02;;;4.00;99.90;;;;;;5074448;28;20247;-91
2023/04/15 01:58:28;;;;;;;0.75;0.75;;;4.00;99.90;;;;;;5074052;28;20213;-92
2023/04/15 02:00:57;;;;;;;0.90;0.90;;;4.00;99.90;;;;;;5074081;28;20205;-92
2023/04/15 02:03:26;;;;;;;1.00;1.00;;;4.00;99.90;;;;;;5074364;28;20216;-91
2023/04/15 02:05:55;;;;;;;1.17;1.08;;;4.00;99.90;;;;;;5074530;28;20197;-91
2023/04/15 02:08:23;;;;;;;1.05;1.05;;;4.00;99.90;;;;;;5073738;28;20212;-93
2023/04/15 02:10:52;;;;;;;1.00;1.00;;;4.00;99.90;;;;;;5074001;28;20209;-91
2023/04/15 02:13:20;;;;;;;1.23;1.17;;;4.00;99.90;;;;;;5073876;28;20225;-92
2023/04/15 02:15:51;;;;;;;1.83;1.10;;;4.10;99.90;;;;;;5074471;28;20201;-91
2023/04/15 02:18:20;;;;;;;0.80;0.80;;;4.10;99.90;;;;;;5074065;28;20205;-92
2023/04/15 02:20:51;;;;;;;1.20;1.20;;;4.10;99.90;;;;;;5073805;28;20207;-92
2023/04/15 02:23:20;;;;;;;1.05;1.05;;;4.10;99.90;;;;;;5073904;28;20312;-86
2023/04/15 02:25:48;;;;;;;1.15;1.15;;;4.10;99.90;;;;;;5073894;28;20300;-86
2023/04/15 02:28:21;;;;;;;1.58;1.48;;;4.00;99.90;;;;;;5073666;28;20204;-86
2023/04/15 02:30:52;;;;;;;0.90;0.90;;;4.10;99.90;;;;;;5073774;28;20223;-86
2023/04/15 02:33:22;;;;;;;0.95;0.95;;;4.10;99.90;;;;;;5073594;28;20260;-86
2023/04/15 02:35:52;;;;;;;3.20;1.10;;;4.10;99.90;;;;;;5073505;28;20211;-86
2023/04/15 02:38:20;;;;;;;0.73;0.73;;;4.10;99.90;;;;;;5073134;28;20247;-86
2023/04/15 02:40:49;;;;;;;0.70;0.70;;;4.10;99.90;;;;;;5073616;28;20232;-85
2023/04/15 02:43:18;;;;;;;0.70;0.70;;;4.10;99.90;;;;;;5073486;28;20323;-86
2023/04/15 02:45:47;;;;;;;1.27;0.98;;;4.10;99.90;;;;;;5072334;28;20201;-86
2023/04/15 02:48:19;;;;;;;0.90;0.90;;;4.10;99.90;;;;;;5072958;28;20201;-85
2023/04/15 02:50:47;;;;;;;1.17;1.17;;;4.10;99.90;;;;;;5073421;28;20205;-85
2023/04/15 02:53:16;;;;;;;0.73;0.73;;;4.10;99.90;;;;;;5073590;28;20231;-85
2023/04/15 02:55:45;;;;;;;0.68;0.68;;;4.10;99.90;;;;;;5073105;28;20237;-86
2023/04/15 02:58:13;;;;;;;0.98;0.98;;;4.20;99.90;;;;;;5073025;28;20235;-85
2023/04/15 03:00:41;;;;;;;0.90;0.90;;;4.10;99.90;;;;;;5073713;28;20296;-85
2023/04/15 03:03:10;;;;;;;1.02;1.02;;;4.20;99.90;;;;;;5072818;28;20233;-85
2023/04/15 03:05:40;;;;;;;3.33;1.92;;;4.20;99.90;;;;;;5072989;28;20344;-85
2023/04/15 03:08:08;;;;;;;0.85;0.85;;;4.20;99.90;;;;;;5072617;28;20215;-85
2023/04/15 03:10:37;;;;;;;0.80;0.80;;;4.20;99.90;;;;;;5073283;28;20205;-91
2023/04/15 03:13:05;;;;;;;0.95;0.95;;;4.20;99.90;;;;;;5072637;28;20236;-85
2023/04/15 03:15:35;;;;;;;0.73;0.73;;;4.20;99.90;;;;;;5072717;28;20225;-85
2023/04/15 03:18:03;;;;;;;0.90;0.90;;;4.20;99.90;;;;;;5072454;28;20201;-85
2023/04/15 03:20:32;;;;;;;0.98;0.70;;;4.20;99.90;;;;;;5072810;28;20208;-85
2023/04/15 03:23:02;;;;;;;0.70;0.70;;;4.20;99.90;;;;;;5073312;28;20331;-85
2023/04/15 03:25:31;;;;;;;0.90;0.90;;;4.20;99.90;;;;;;5072579;28;20197;-91
2023/04/15 03:28:00;;;;;;;0.82;0.82;;;4.30;99.90;;;;;;5072127;28;20241;-92
2023/04/15 03:30:28;;;;;;;0.80;0.80;;;4.20;99.90;;;;;;5072769;28;20201;-91
2023/04/15 03:32:57;;;;;;;0.98;0.98;;;4.30;99.90;;;;;;5072355;28;20292;-91
2023/04/15 03:35:25;;;;;;;0.93;0.93;;;4.30;99.90;;;;;;5072354;28;20231;-91
2023/04/15 03:37:54;;;;;;;1.17;0.90;;;4.20;99.90;;;;;;5072220;28;20211;-91
2023/04/15 03:40:24;;;;;;;0.75;0.75;;;4.20;99.90;;;;;;5072524;28;20211;-91
2023/04/15 03:42:52;;;;;;;1.20;1.20;;;4.20;99.90;;;;;;5071896;28;20231;-91
2023/04/15 03:45:21;;;;;;;0.68;0.68;;;4.30;99.90;;;;;;5071647;28;20207;-91
2023/04/15 03:47:49;;;;;;;0.80;0.80;;;4.30;99.90;;;;;;5072063;28;20211;-91
2023/04/15 03:50:18;;;;;;;1.67;1.58;;;4.30;99.90;;;;;;5072710;28;20201;-91
2023/04/15 03:52:46;;;;;;;0.75;0.75;;;4.30;99.90;;;;;;5072485;28;20264;-92
2023/04/15 03:55:18;;;;;;;1.35;1.25;;;4.30;99.90;;;;;;5072414;28;20312;-91
2023/04/15 03:57:48;;;;;;;0.90;0.90;;;4.30;99.90;;;;;;5071540;28;20204;-91
2023/04/15 04:00:16;;;;;;;0.93;0.93;;;4.30;99.90;;;;;;5072569;28;20240;-91
2023/04/15 04:02:45;;;;;;;1.60;1.50;;;4.30;99.90;;;;;;5072573;28;20315;-92
2023/04/15 04:05:13;;;;;;;0.90;0.90;;;4.30;99.90;;;;;;5072575;28;20201;-92
2023/04/15 04:07:42;;;;;;;1.00;1.00;;;4.30;99.90;;;;;;5071857;28;20205;-92
2023/04/15 04:10:11;;;;;;;0.90;0.90;;;4.30;99.90;;;;;;5072308;28;20213;-91
2023/04/15 04:12:39;;;;;;;1.33;1.23;;;4.30;99.90;;;;;;5072203;28;20228;-92
2023/04/15 04:15:10;;;;;;;1.50;1.40;;;4.30;99.90;;;;;;5072419;28;20233;-91
2023/04/15 04:17:38;;;;;;;1.08;1.08;;;4.30;99.90;;;;;;5072085;28;20209;-92
2023/04/15 04:20:08;;;;;;;1.15;1.10;;;4.30;99.90;;;;;;5072384;28;20296;-91
2023/04/15 04:22:39;;;;;;;1.10;1.10;;;4.30;99.90;;;;;;5072103;28;20335;-91
2023/04/15 04:25:08;;;;;;;3.80;1.45;;;4.30;99.90;;;;;;5072697;28;20209;-91
2023/04/15 04:27:37;;;;;;;0.77;0.77;;;4.30;99.90;;;;;;5071690;28;20216;-91
2023/04/15 04:30:07;;;;;;;1.50;1.00;;;4.30;99.90;;;;;;5072540;28;20297;-91
2023/04/15 04:32:37;;;;;;;0.73;0.73;;;4.30;99.90;;;;;;5072086;28;20229;-92
2023/04/15 04:35:06;;;;;;;1.23;1.13;;;4.30;99.90;;;;;;5076341;28;20255;-92
2023/04/15 04:37:34;;;;;;;0.88;0.88;;;4.30;99.90;;;;;;5072052;28;20213;-92
2023/04/15 04:40:03;;;;;;;1.00;1.00;;;4.30;99.90;;;;;;5072148;28;20264;-91
2023/04/15 04:42:31;;;;;;;0.85;0.85;;;4.30;99.90;;;;;;5072114;28;20229;-91
2023/04/15 04:45:00;;;;;;;0.98;0.98;;;4.40;99.90;;;;;;5071519;28;20213;-92
2023/04/15 04:47:29;;;;;;;1.00;1.00;;;4.40;99.90;;;;;;5071673;28;20261;-92
2023/04/15 04:49:58;;;;;;;1.02;1.02;;;4.40;99.90;;;;;;5071976;28;20201;-92
2023/04/15 04:52:27;;;;;;;1.00;1.00;;;4.40;99.90;;;;;;5072384;28;20232;-85
2023/04/15 04:54:56;;;;;;;1.52;1.42;;;4.40;99.90;;;;;;5075542;28;20212;-86
2023/04/15 04:57:24;;;;;;;1.58;1.48;;;4.50;99.90;;;;;;5074588;28;20205;-86
2023/04/15 04:59:52;;;;;;;1.95;1.80;;;4.50;99.90;;;;;;5075346;28;20232;-86
2023/04/15 05:02:21;;;;;;;1.80;1.70;;;4.50;99.90;;;;;;5075209;28;20233;-86
2023/04/15 05:04:53;;;;;;;1.92;1.83;;;4.60;99.90;;;;;;5075385;28;20233;-86
2023/04/15 05:07:23;;;;;;;1.90;1.80;;;4.50;99.90;;;;;;5074898;28;20205;-86
2023/04/15 05:09:51;;;;;;;2.75;2.17;;;4.60;99.90;;;;;;5075306;28;20215;-86
2023/04/15 05:12:20;;;;;;;2.42;2.28;;;4.60;99.90;;;;;;5075042;28;20319;-86
2023/04/15 05:14:48;;;;;;;2.55;2.35;;;4.60;99.90;;;;;;5075412;28;20201;-86
2023/04/15 05:17:17;;;;;;;3.17;2.97;;;4.60;99.90;;;;;;5074609;28;20243;-86
2023/04/15 05:19:45;;;;;;;2.47;2.38;;;4.60;99.90;;;;;;5075269;28;20204;-86
2023/04/15 05:22:13;;;;;;;11.65;2.88;;;4.70;99.90;;;;;;5075003;28;20225;-86
2023/04/15 05:24:43;;;;;;;3.00;2.63;;;4.60;99.90;;;;;;5075021;28;20219;-85
2023/04/15 05:27:12;;;;;;;3.30;3.00;;;4.60;99.90;;;;;;5074466;28;20203;-86
2023/04/15 05:29:40;;;;;;;2.33;2.22;;;4.70;99.90;;;;;;5074952;28;20213;-86
2023/04/15 05:32:08;;;;;;;3.25;2.95;;;4.70;99.90;;;;;;5074860;28;20308;-86
2023/04/15 05:34:38;;;;;;;3.20;3.00;;;4.70;99.90;;;;;;5074972;28;20304;-86
2023/04/15 05:37:06;;;;;;;2.92;2.72;;;4.70;99.90;;;;;;5074182;28;20229;-86
2023/04/15 05:39:35;;;;;;;3.30;3.00;;;4.80;99.90;;;;;;5074876;28;20210;-91
2023/04/15 05:42:05;;;;;;;2.60;2.40;;;4.80;99.90;;;;;;5074858;28;20236;-92
2023/04/15 05:44:34;;;;;;;2.97;2.78;;;4.80;99.90;;;;;;5074960;28;20300;-93
2023/04/15 05:47:03;;;;;;;2.85;2.65;;;4.80;99.90;;;;;;5073736;28;20229;-92
2023/04/15 05:49:31;;;;;;;3.17;2.90;;;4.90;99.90;;;;;;5074863;28;20295;-93
2023/04/15 05:51:59;;;;;;;4.05;3.58;;;4.90;99.90;;;;;;5074612;28;20231;-92
2023/04/15 05:54:28;;;;;;;2.92;2.72;;;4.90;99.90;;;;;;5074611;28;20212;-93
2023/04/15 05:56:57;;;;;;;2.88;2.67;;;5.00;99.90;;;;;;5073644;28;20243;-92
2023/04/15 05:59:27;;;;;;;2.83;2.63;;;5.00;99.90;;;;;;5074450;28;20244;-92
2023/04/15 06:01:55;;;;;;;2.80;2.60;;;5.00;99.90;;;;;;5074452;28;20266;-92
2023/04/15 06:04:24;;;;;;;2.67;2.47;;;5.00;99.90;;;;;;5073889;28;20244;-92
2023/04/15 06:06:53;;;;;;;2.10;2.00;;;5.10;99.90;;;;;;5073990;28;20205;-92
2023/04/15 06:09:22;;;;;;;2.70;2.50;;;5.10;99.90;;;;;;5074768;28;20292;-93
2023/04/15 06:11:50;;;;;;;3.53;3.20;;;5.10;99.90;;;;;;5074187;28;20217;-93
2023/04/15 06:14:18;;;;;;;2.65;2.45;;;5.20;99.90;;;;;;5074162;28;20291;-93
2023/04/15 06:16:48;;;;;;;2.28;2.17;;;5.20;99.90;;;;;;5074020;28;20221;-94
2023/04/15 06:19:17;;;;;;;2.63;2.40;;;5.20;99.90;;;;;;5074728;28;20209;-93
2023/04/15 06:21:46;;;;;;;2.33;2.22;;;5.20;99.90;;;;;;5074494;28;20228;-93
2023/04/15 06:24:14;;;;;;;4.40;3.05;;;5.20;99.90;;;;;;5074022;28;20205;-94
2023/04/15 06:26:42;;;;;;;2.50;2.35;;;5.30;99.90;;;;;;5073418;28;20197;-94
2023/04/15 06:29:11;;;;;;;2.70;2.50;;;5.30;99.90;;;;;;5074161;28;20204;-93
2023/04/15 06:31:39;;;;;;;2.45;2.35;;;5.30;99.90;;;;;;5074096;28;20232;-93
2023/04/15 06:34:10;;;;;;;2.95;2.75;;;5.30;99.90;;;;;;5074333;28;20230;-94
2023/04/15 06:36:38;;;;;;;2.90;2.63;;;5.30;99.90;;;;;;5073689;28;20244;-94
2023/04/15 06:39:06;;;;;;;2.92;2.63;;;5.30;99.90;;;;;;5073531;28;20212;-93
2023/04/15 06:41:35;;;;;;;5.18;3.60;;;5.40;99.90;;;;;;5074090;28;20258;-94
2023/04/15 06:44:03;;;;;;;4.03;3.53;;;5.40;99.90;;;;;;5073524;28;20264;-93
2023/04/15 06:46:32;;;;;;;3.10;2.78;;;5.50;99.90;;;;;;5073010;28;20205;-94
2023/04/15 06:49:00;;;;;;;3.58;3.33;;;5.50;99.90;;;;;;5072942;28;20197;-93
2023/04/15 06:51:31;;;;;;;4.85;3.65;;;5.50;99.90;;;;;;5073958;28;20236;-93
2023/04/15 06:54:00;;;;;;;2.67;2.53;;;5.50;99.90;;;;;;5073639;28;20205;-93
2023/04/15 06:56:28;;;;;;;25.27;5.00;;;5.40;99.90;;;;;;5074166;28;20221;-93
2023/04/15 06:58:56;;;;;;;3.20;2.90;;;5.50;99.90;;;;;;5072899;28;20205;-94
2023/04/15 07:01:25;;;;;;;3.90;3.45;;;5.50;99.90;;;;;;5073083;28;20225;-93
2023/04/15 07:03:53;;;;;;;3.88;3.58;;;5.50;99.90;;;;;;5073458;28;20198;-93
2023/04/15 07:06:22;;;;;;;3.25;2.95;;;5.60;99.90;;;;;;5073086;28;20204;-93
2023/04/15 07:08:52;;;;;;;3.67;3.38;;;5.60;99.90;;;;;;5072736;28;20228;-92
2023/04/15 07:11:21;;;;;;;3.10;2.88;;;5.60;99.90;;;;;;5073396;28;20229;-93
2023/04/15 07:13:49;;;;;;;3.35;3.15;;;5.70;99.90;;;;;;5073141;28;20208;-93
2023/04/15 07:16:18;;;;;;;3.40;3.10;;;5.70;99.90;;;;;;5072543;28;20312;-93
2023/04/15 07:18:47;;;;;;;3.28;3.08;;;5.70;99.90;;;;;;5072932;28;20204;-93
2023/04/15 07:21:15;;;;;;;3.15;2.85;;;5.80;99.90;;;;;;5073120;28;20205;-93
2023/04/15 07:23:44;;;;;;;2.83;2.63;;;5.80;99.90;;;;;;5073028;28;20292;-93
2023/04/15 07:26:14;;;;;;;3.15;2.95;;;5.80;99.90;;;;;;5073251;28;20244;-94
2023/04/15 07:28:42;;;;;;;3.83;3.53;;;5.90;99.90;;;;;;5072411;28;20272;-93
2023/04/15 07:31:11;;;;;;;3.60;3.30;;;5.90;99.90;;;;;;5072995;28;20255;-93
2023/04/15 07:33:39;;;;;;;3.08;2.88;;;5.90;99.90;;;;;;5073017;28;20343;-94
2023/04/15 07:36:08;;;;;;;3.63;3.33;;;5.90;99.90;;;;;;5072767;28;20276;-93
2023/04/15 07:38:36;;;;;;;3.72;3.42;;;5.90;99.90;;;;;;5072251;28;20213;-95
2023/04/15 07:41:05;;;;;;;3.90;2.85;;;5.90;99.90;;;;;;5072519;28;20236;-93
2023/04/15 07:43:35;;;;;;;3.83;3.42;;;5.80;99.90;;;;;;5072465;28;20219;-92
2023/04/15 07:46:03;;;;;;;3.42;3.22;;;5.80;99.90;;;;;;5072002;28;20205;-92
2023/04/15 07:48:31;;;;;;;3.42;3.17;;;5.80;99.90;;;;;;5072294;28;20289;-92
2023/04/15 07:51:02;;;;;;;5.22;3.65;;;5.80;99.90;;;;;;5072682;28;20205;-92
2023/04/15 07:53:31;;;;;;;2.60;2.40;;;5.90;99.90;;;;;;5072312;28;20211;-92
2023/04/15 07:56:00;;;;;;;3.95;3.65;;;6.00;99.90;;;;;;5072278;28;20260;-92
2023/04/15 07:58:28;;;;;;;3.58;3.28;;;6.10;99.90;;;;;;5071729;28;20260;-93
2023/04/15 08:00:58;;;;;;;5.05;3.28;;;6.20;99.90;;;;;;5072772;28;20324;-92
2023/04/15 08:03:27;;;;;;;3.25;3.05;;;6.20;99.90;;;;;;5072389;28;20280;-93
2023/04/15 08:05:56;;;;;;;4.03;3.60;;;6.30;99.90;;;;;;5072546;28;20223;-93
2023/04/15 08:08:25;;;;;;;2.92;2.72;;;6.40;99.90;;;;;;5071903;28;20200;-93
2023/04/15 08:10:53;;;;;;;2.65;2.45;;;6.40;99.90;;;;;;5072415;28;20212;-93
2023/04/15 08:13:22;;;;;;;2.63;2.42;;;6.50;99.90;;;;;;5072252;28;20231;-93
2023/04/15 08:16:13;;;;;;;2.85;2.65;;;6.60;99.90;;;;;;5072634;28;20209;-92
2023/04/15 08:18:44;;;;;;;2.50;2.30;;;6.70;99.90;;;;;;5071990;28;20244;-92
2023/04/15 08:21:12;;;;;;;3.55;2.75;;;6.80;99.90;;;;;;5072321;28;20209;-91
2023/04/15 08:23:41;;;;;;;2.33;2.22;;;6.80;99.90;;;;;;5072314;28;20209;-92
2023/04/15 08:26:09;;;;;;;2.95;2.75;;;6.90;99.90;;;;;;5072224;28;20200;-92
2023/04/15 08:28:39;;;;;;;3.40;3.10;;;6.80;99.90;;;;;;5074112;28;20196;-92
2023/04/15 08:31:08;;;;;;;2.50;2.40;;;6.90;99.90;;;;;;5076308;28;20232;-93
2023/04/15 08:33:37;;;;;;;2.90;2.70;;;6.90;99.90;;;;;;5076472;28;20320;-91
2023/04/15 08:36:08;;;;;;;2.30;2.13;;;6.90;99.90;;;;;;5076467;28;20209;-92
2023/04/15 08:38:36;;;;;;;2.35;2.25;;;6.80;99.90;;;;;;5077070;28;20221;-92
2023/04/15 08:41:10;;;;;;;2.30;2.17;;;6.70;99.90;;;;;;5076198;28;20296;-92
2023/04/15 08:43:47;;;;;;;2.72;2.53;;;6.70;99.90;;;;;;5076687;28;20201;-92
2023/04/15 08:46:17;;;;;;;1.88;1.77;;;6.70;99.90;;;;;;5075922;28;20268;-91
2023/04/15 08:48:47;;;;;;;2.28;2.17;;;6.70;99.90;;;;;;5075335;28;20247;-91
2023/04/15 08:51:18;;;;;;;2.05;1.90;;;6.80;99.90;;;;;;5075799;28;20269;-92
2023/04/15 08:53:47;;;;;;;2.30;2.20;;;6.80;99.90;;;;;;5075636;28;20205;-92
2023/04/15 08:56:16;;;;;;;2.45;2.28;;;6.90;99.90;;;;;;5076337;28;20200;-91
2023/04/15 08:58:46;;;;;;;2.50;2.30;;;6.80;99.90;;;;;;5075364;28;20264;-91
2023/04/15 09:01:15;;;;;;;2.10;2.00;;;6.70;99.90;;;;;;5075378;28;20208;-91
2023/04/15 09:03:44;;;;;;;1.80;1.70;;;6.70;99.90;;;;;;5075652;28;20213;-91
2023/04/15 09:06:13;;;;;;;1.77;1.52;;;6.80;99.90;;;;;;5076025;28;20205;-92
2023/04/15 09:08:43;;;;;;;1.02;1.02;;;6.70;99.90;;;;;;5075068;28;20209;-91
2023/04/15 09:11:12;;;;;;;1.30;1.20;;;6.60;99.90;;;;;;5075648;28;20288;-91
2023/04/15 09:13:40;;;;;;;2.47;2.28;;;6.60;99.90;;;;;;5075496;28;20205;-91
2023/04/15 09:16:09;;;;;;;1.38;1.27;;;6.60;99.90;;;;;;5075478;28;20211;-92
2023/04/15 09:18:39;;;;;;;1.30;1.20;;;6.60;99.90;;;;;;5074625;28;20224;-93
2023/04/15 09:21:10;;;;;;;1.50;1.40;;;6.60;99.90;;;;;;5075297;28;20212;-93
2023/04/15 09:23:40;;;;;;;1.70;1.60;;;6.60;99.90;;;;;;5075658;28;20321;-92
2023/04/15 09:26:10;;;;;;;1.13;1.08;;;6.70;99.90;;;;;;5075783;28;20202;-93
2023/04/15 09:28:42;;;;;;;1.50;1.40;;;6.70;99.90;;;;;;5074860;28;20212;-93
2023/04/15 09:31:11;;;;;;;1.30;1.20;;;6.80;99.90;;;;;;5075251;28;20205;-92
2023/04/15 09:33:56;;;;;;;1.00;1.00;;;6.80;99.90;;;;;;5075443;28;20197;-92
2023/04/15 09:36:29;;;;;;;0.75;0.75;;;6.90;99.90;;;;;;5075058;28;20271;-91
2023/04/15 09:38:59;;;;;;;2.78;1.88;;;7.00;99.90;;;;;;5073582;28;20316;-91
2023/04/15 09:41:29;;;;;;;1.48;1.40;;;7.10;99.90;;;;;;5074470;28;20229;-91
2023/04/15 09:43:58;;;;;;;1.40;1.30;;;7.20;99.90;;;;;;5075028;28;20212;-93
2023/04/15 09:46:42;;;;;;;1.50;1.40;;;7.20;99.90;;;;;;5073969;28;20217;-92
2023/04/15 09:49:12;;;;;;;0.55;0.55;;;7.20;99.90;;;;;;5074487;28;20213;-92
2023/04/15 09:51:40;;;;;;;1.05;1.02;;;7.10;99.90;;;;;;5074849;28;20244;-93
2023/04/15 09:54:20;;;;;;;1.25;1.20;;;7.10;99.90;;;;;;5074865;28;20290;-93
2023/04/15 09:56:50;;;;;;;0.80;0.80;;;7.10;99.90;;;;;;5073886;28;20224;-91
2023/04/15 09:59:18;;;;;;;1.23;1.08;;;7.00;99.90;;;;;;5074145;28;20301;-91
2023/04/15 10:01:48;;;;;;;1.00;1.00;;;6.90;99.90;;;;;;5074102;28;20232;-91
2023/04/15 10:04:17;;;;;;;0.70;0.70;;;6.90;99.90;;;;;;5074672;28;20205;-91
2023/04/15 10:06:46;;;;;;;0.80;0.68;;;6.80;99.90;;;;;;5074100;28;20288;-92
2023/04/15 10:09:14;;;;;;;0.40;0.40;;;6.80;99.90;;;;;;5074190;28;20289;-92
2023/04/15 10:11:43;;;;;;;1.08;1.02;;;6.80;99.90;;;;;;5074287;28;20240;-91
2023/04/15 10:14:16;;;;;;;2.47;1.38;;;6.80;99.90;;;;;;5074234;28;20284;-91
2023/04/15 10:16:48;;;;;;;1.30;1.20;;;6.70;99.90;;;;;;5074048;28;20256;-92
2023/04/15 10:19:21;;;;;;;1.50;1.40;;;6.80;99.90;;;;;;5074356;28;20255;-92
2023/04/15 10:21:51;;;;;;;0.95;0.95;;;6.80;99.90;;;;;;5074034;28;20228;-92
2023/04/15 10:24:20;;;;;;;1.25;1.15;;;6.80;99.90;;;;;;5074058;28;20288;-93
2023/04/15 10:26:48;;;;;;;1.48;1.38;;;6.70;99.90;;;;;;5073632;28;20197;-92
2023/04/15 10:29:18;;;;;;;1.30;1.05;;;6.80;99.90;;;;;;5074033;28;20201;-92
2023/04/15 10:31:48;;;;;;;0.60;0.60;;;6.80;99.90;;;;;;5074535;28;20280;-93
2023/04/15 10:37:48;;;;;;;1.00;1.00;;;6.80;99.90;;;;;;5072925;28;20205;-92
2023/04/15 10:40:30;;;;;;;0.70;0.70;;;6.90;99.90;;;;;;5073737;28;20205;-93
2023/04/15 10:43:00;;;;;;;0.40;0.40;;;6.90;99.90;;;;;;5073827;28;20228;-93
2023/04/15 10:45:35;;;;;;;0.80;0.80;;;6.90;99.90;;;;;;5072346;28;20207;-93
2023/04/15 10:48:08;;;;;;;0.90;0.90;;;6.90;99.90;;;;;;5073450;28;20207;-93
2023/04/15 10:50:38;;;;;;;1.20;1.17;;;6.80;99.90;;;;;;5073358;28;20211;-93
2023/04/15 10:53:10;;;;;;;1.10;1.00;;;6.90;99.90;;;;;;5073356;28;20226;-93
2023/04/15 10:55:38;;;;;;;0.90;0.90;;;6.90;99.90;;;;;;5073894;28;20324;-93
2023/04/15 10:58:10;;;;;;;0.80;0.80;;;6.90;99.90;;;;;;5072902;28;20205;-93
2023/04/15 11:00:40;;;;;;;0.80;0.80;;;6.90;99.90;;;;;;5073642;28;20201;-93
2023/04/15 11:03:09;;;;;;;1.95;1.33;;;7.00;99.90;;;;;;5073130;28;20323;-92
2023/04/15 11:05:51;;;;;;;0.77;0.77;;;7.10;99.90;;;;;;5073596;28;20212;-93
2023/04/15 11:08:40;;;;;;;0.70;0.70;;;7.10;99.90;;;;;;5072917;28;20200;-93
2023/04/15 11:11:09;;;;;;;0.38;0.38;;;7.20;99.90;;;;;;5073182;28;20236;-92
2023/04/15 11:13:49;;;;;;;0.65;0.65;;;7.10;99.90;;;;;;5073070;28;20207;-93
2023/04/15 11:16:19;;;;;;;0.43;0.43;;;7.10;99.90;;;;;;5072823;28;20200;-92
2023/04/15 11:18:54;;;;;;;1.17;1.13;;;7.10;99.90;;;;;;5072854;28;20243;-93
2023/04/15 11:21:27;;;;;;;0.50;0.50;;;7.10;99.90;;;;;;5073477;28;20292;-92
2023/04/15 11:23:55;;;;;;;0.77;0.77;;;7.10;99.90;;;;;;5085846;28;20295;-93
2023/04/15 11:26:26;;;;;;;1.60;0.88;;;7.20;99.90;;;;;;5073099;28;20207;-92
2023/04/15 11:28:54;;;;;;;0.80;0.80;;;7.20;99.90;;;;;;5072682;28;20209;-94
2023/04/15 11:31:28;;;;;;;0.90;0.90;;;7.20;99.90;;;;;;5073125;28;20249;-91
2023/04/15 11:33:58;;;;;;;0.98;0.98;;;7.20;99.90;;;;;;5073187;28;20266;-91
2023/04/15 11:36:28;;;;;;;0.55;0.55;;;7.20;99.90;;;;;;5072773;28;20205;-91
2023/04/15 11:38:58;;;;;;;0.93;0.93;;;7.20;99.90;;;;;;5072202;28;20289;-91
2023/04/15 11:41:26;;;;;;;1.73;1.00;;;7.30;99.90;;;;;;5073021;28;20232;-91
2023/04/15 11:43:55;;;;;;;0.68;0.68;;;7.30;99.90;;;;;;5072661;28;20296;-92
2023/04/15 11:46:29;;;;;;;1.73;1.63;;;7.30;99.90;;;;;;5071841;28;20207;-88
2023/04/15 11:50:00;;;;;;;2.45;1.92;;;7.30;99.90;;;;;;5073047;28;20205;-93
2023/04/15 11:52:56;;;;;;;0.80;0.80;;;7.30;99.90;;;;;;5058216;28;20225;-92
2023/04/15 11:55:25;;;;;;;1.10;1.00;;;7.40;99.90;;;;;;5072565;28;20276;-93
2023/04/15 11:58:08;;;;;;;3.20;0.77;;;7.30;99.90;;;;;;5068266;28;20201;-86
2023/04/15 12:00:46;;;;;;;0.82;0.82;;;7.30;99.90;;;;;;5065696;28;20221;-90
2023/04/15 12:03:24;;;;;;;1.63;1.52;;;7.30;99.90;;;;;;5072353;28;20240;-95
2023/04/15 12:06:17;;;;;;;0.75;0.75;;;7.30;99.90;;;;;;5077736;28;20193;-91
2023/04/15 12:09:02;;;;;;;1.50;1.40;;;7.30;99.90;;;;;;5075393;28;20193;-94
2023/04/15 12:11:39;;;;;;;1.52;1.42;;;7.40;99.90;;;;;;5074387;28;20311;-94
2023/04/15 12:14:24;;;;;;;0.68;0.68;;;7.40;99.90;;;;;;5078490;28;20203;-96
2023/04/15 12:17:02;;;;;;;0.90;0.90;;;7.50;99.90;;;;;;5077063;28;20208;-95
2023/04/15 12:19:42;;;;;;;0.40;0.32;;;7.60;99.90;;;;;;5083071;28;20223;-96
2023/04/15 12:22:12;;;;;;;0.90;0.75;;;7.50;99.90;;;;;;5081599;28;20237;-90
2023/04/15 12:24:42;;;;;;;0.63;0.63;;;7.50;99.90;;;;;;5076227;28;20254;-91
2023/04/15 12:27:12;;;;;;;0.60;0.60;;;7.60;99.90;;;;;;5075726;28;20272;-91
2023/04/15 12:29:43;;;;;;;0.50;0.50;;;7.60;99.90;;;;;;5075934;28;20251;-90
2023/04/15 12:32:12;;;;;;;0.60;0.60;;;7.50;99.90;;;;;;5075072;28;20280;-90
2023/04/15 12:34:45;;;;;;;1.50;1.05;;;7.50;99.90;;;;;;5075387;28;20289;-90
2023/04/15 12:37:14;;;;;;;0.82;0.65;;;7.40;99.90;;;;;;5076421;28;20272;-91
2023/04/15 12:39:45;;;;;;;1.27;1.23;;;7.40;99.90;;;;;;5076692;28;20221;-90
2023/04/15 12:42:13;;;;;;;1.92;1.83;;;7.40;99.90;;;;;;5076862;28;20236;-90
2023/04/15 12:44:42;;;;;;;3.03;1.50;;;7.40;99.90;;;;;;5076052;28;20300;-90
2023/04/15 12:47:11;;;;;;;0.70;0.70;;;7.50;99.90;;;;;;5075955;28;20204;-91
2023/04/15 12:49:40;;;;;;;0.57;0.57;;;7.50;99.90;;;;;;5076438;28;20236;-90
2023/04/15 12:52:10;;;;;;;0.90;0.90;;;7.50;99.90;;;;;;5076457;28;20288;-90
2023/04/15 12:54:39;;;;;;;0.90;0.90;;;7.60;99.90;;;;;;5076560;28;20209;-89
2023/04/15 12:57:08;;;;;;;1.35;0.80;;;7.50;99.90;;;;;;5076070;28;20216;-89
2023/04/15 12:59:39;;;;;;;9.18;1.23;;;7.50;99.90;;;;;;5076165;28;20213;-89
2023/04/15 13:02:08;;;;;;;0.73;0.70;;;7.60;99.90;;;;;;5076233;28;20237;-88
2023/04/15 13:04:36;;;;;;;0.52;0.52;;;7.70;99.90;;;;;;5076390;28;20216;-89
2023/04/15 13:07:05;;;;;;;0.47;0.47;;;7.90;99.90;;;;;;5060239;28;20209;-88
2023/04/15 13:09:35;;;;;;;0.50;0.50;;;8.00;99.90;;;;;;5056221;28;20213;-88
2023/04/15 13:12:04;;;;;;;0.55;0.55;;;8.20;99.90;;;;;;5055971;28;20228;-87
2023/04/15 13:14:32;;;;;;;0.80;0.80;;;8.40;99.90;;;;;;5055832;28;20293;-88
2023/04/15 13:17:03;;;;;;;0.85;0.80;;;8.50;99.90;;;;;;5055568;28;20379;-88